Kaktovik, AK

11:09 AM AKST on February 22, 2017 (GMT -0900)
Barter Island LRRS | | Change Station
Active Advisory: Wind Chill Advisory

Elev 3 ft 70.13 °N, 143.58 °W | Updated 17 minutes ago

Clear
Clear
-27 °F
Feels Like -42 °F
N
5
Wind Variable Wind from SW

Today
High -- | Low -- °F
--% Chance of Precip.
Yesterday
High -- | Low -- °F
Precip. -- in
Pressure 30.24 in
Visibility 10.0 miles
Clouds Clear
Windchill -42 °F
Dew Point -33 °F
Humidity 73%
Rainfall 0.00 in
Snow Depth Not available.
8:32 AM 5:04 PM
Waning Crescent, 15% visible
METAR PABA 221952Z AUTO 23004KT 10SM CLR M33/M36 A3028 RMK AO2 SLP238 T13281361 FZRANO TSNO
Pressure 30.24 in
Visibility 10.0 miles
Clouds Clear
Windchill -42 °F
Dew Point -33 °F
Humidity 73%
Rainfall 0.00 in
Snow Depth Not available.
8:32 AM 5:04 PM
Waning Crescent, 15% visible
METAR PABA 221952Z AUTO 23004KT 10SM CLR M33/M36 A3028 RMK AO2 SLP238 T13281361 FZRANO TSNO

Get Your Daily Forecast Email!

Thanks for signing up!

Be on the lookout for a verification email in your inbox.

You'll start receiving the daily forecast at 8 AM.

×

10-Day Weather Forecast

Almanac

Astronomy

Feb. 22, 2017 Rise Set
Actual Time
Civil Twilight
Nautical Twilight
Astronomical Twilight
Moon
Length of Visible Light
Length of Day
Tomorrow will be .
, % of the Moon is Illuminated

Today's Extremes

State Highs State Lows

Community

WunderPhotos

Upload Photos

1,962,540 photos uploaded!

WunderBlog® & News

Nearby

Air Quality

  Air Quality AQ Index Pollutant
Not available.

Snow Depth

Station Depth Elevation

Earthquake Activity

City Distance Mag. Time & Date
Minimum magnitude displayed is 2.5.

Coastal Water Temperatures

Place Temperature

Stations

Nearby Weather Stations

Station Location Temp. Windchill Dew Point Humidity Wind Precip. Elev Updated Type
                   

Watches & Warnings

Wind Chill Advisory
Issued: 4:44 AM AKST Feb. 22, 2017 – National Weather Service

... Wind Chill Advisory now in effect until 6 PM akst Thursday...

* wind chill values... around 55 below.

* Timing... low wind chill values this morning will improve some
this afternoon as temperatures rise but will drop again tonight
as temperatures drop.

* Impacts... exposed flesh will freeze in a short time resulting
in frostbite.

Precautionary/preparedness actions...

A Wind Chill Advisory means that low wind chills with sustained
wind speeds of 15 mph or more are occurring or expected. If
outdoors, cover exposed skin to prevent frostbite.